Time;durP1;ratioP1;P1;durP2;ratioP2;P2;SDS_P1;SDS_P2;PMS_P1;PMS_P2;Temp;Humidity;BMP_temperature;BMP_pressure;BME280_temperature;BME280_humidity;BME280_pressure;Samples;Min_cycle;Max_cycle;Signal;HPM_P1;HPM_P2
2023/12/29 05:11:44;;;;;;;3.90;2.58;;;6.50;99.90;;;;;;7609606;19;20393;-69
2023/12/29 05:14:17;;;;;;;3.45;2.45;;;6.50;99.90;;;;;;7624421;19;20025;-71
2023/12/29 05:16:49;;;;;;;4.35;2.90;;;6.60;99.90;;;;;;7622813;19;20029;-70
2023/12/29 05:19:21;;;;;;;3.28;2.47;;;6.70;99.90;;;;;;7624262;19;20018;-71
2023/12/29 05:21:54;;;;;;;4.82;2.63;;;6.70;99.90;;;;;;7635245;19;20021;-70
2023/12/29 05:24:26;;;;;;;5.90;2.35;;;6.80;99.90;;;;;;7624595;19;21314;-71
2023/12/29 05:26:58;;;;;;;5.07;2.72;;;6.90;99.90;;;;;;7617745;19;20055;-71
2023/12/29 05:29:30;;;;;;;4.65;2.53;;;7.00;99.90;;;;;;7633405;19;20015;-71
2023/12/29 05:32:03;;;;;;;3.33;2.20;;;7.10;99.90;;;;;;7628403;19;20015;-71
2023/12/29 05:34:35;;;;;;;4.20;2.60;;;7.10;99.90;;;;;;7624822;19;20033;-70
2023/12/29 05:37:08;;;;;;;4.38;2.58;;;7.10;99.90;;;;;;7628403;19;20052;-71
2023/12/29 05:39:43;;;;;;;2.97;2.28;;;7.20;99.90;;;;;;7625521;19;22326;-70
2023/12/29 05:42:15;;;;;;;4.72;2.28;;;7.20;99.90;;;;;;7623321;19;20018;-71
2023/12/29 05:44:48;;;;;;;4.82;2.47;;;7.20;99.90;;;;;;7625653;19;20037;-72
2023/12/29 05:47:20;;;;;;;4.18;2.67;;;7.20;99.90;;;;;;7603415;19;20041;-74
2023/12/29 05:49:53;;;;;;;3.83;2.45;;;7.20;99.90;;;;;;7619599;19;20026;-70
2023/12/29 05:52:25;;;;;;;4.53;2.58;;;7.20;99.90;;;;;;7619133;19;20863;-71
2023/12/29 05:54:57;;;;;;;6.32;2.47;;;7.20;99.90;;;;;;7609087;19;20317;-72
2023/12/29 05:57:29;;;;;;;3.10;2.30;;;7.20;99.90;;;;;;7604172;19;20750;-71
2023/12/29 06:00:02;;;;;;;4.47;2.33;;;7.20;99.90;;;;;;7621322;19;20026;-71
2023/12/29 06:02:43;;;;;;;6.13;3.80;;;7.10;99.90;;;;;;7616274;19;21400;-71
2023/12/29 06:05:15;;;;;;;5.63;2.78;;;7.10;99.90;;;;;;7589075;19;20018;-71
2023/12/29 06:07:48;;;;;;;2.78;2.03;;;7.20;99.90;;;;;;7599622;19;20021;-70
2023/12/29 06:10:20;;;;;;;3.15;2.28;;;7.10;99.90;;;;;;7607011;19;21000;-72
2023/12/29 06:12:53;;;;;;;3.63;2.42;;;7.10;99.90;;;;;;7604143;19;20519;-71
2023/12/29 06:15:25;;;;;;;4.35;2.28;;;7.10;99.90;;;;;;7589704;19;20569;-71
2023/12/29 06:17:58;;;;;;;5.53;3.00;;;7.10;99.90;;;;;;7594651;19;20484;-71
2023/12/29 06:20:31;;;;;;;8.55;3.42;;;7.20;99.90;;;;;;7612350;19;20021;-71
2023/12/29 06:23:03;;;;;;;3.88;3.03;;;7.10;99.90;;;;;;7557386;19;20018;-71
2023/12/29 06:25:35;;;;;;;3.42;2.53;;;7.20;99.90;;;;;;7541381;19;20356;-71
2023/12/29 06:28:10;;;;;;;3.47;2.30;;;7.30;99.90;;;;;;7560938;19;20303;-71
2023/12/29 06:30:42;;;;;;;3.03;2.45;;;7.20;99.90;;;;;;7568475;19;20026;-71
2023/12/29 06:33:15;;;;;;;4.90;2.70;;;7.30;99.90;;;;;;7549021;19;20430;-71
2023/12/29 06:35:48;;;;;;;4.65;2.28;;;7.20;99.90;;;;;;7526949;19;20039;-71
2023/12/29 06:38:21;;;;;;;3.20;2.25;;;7.20;99.90;;;;;;7526523;19;20018;-71
2023/12/29 06:40:53;;;;;;;2.42;2.00;;;7.30;99.90;;;;;;7574475;19;20010;-71
2023/12/29 06:43:26;;;;;;;5.10;2.30;;;7.20;99.90;;;;;;7568060;19;20025;-71
2023/12/29 06:45:58;;;;;;;3.65;2.17;;;7.30;99.90;;;;;;7544648;19;20343;-72
2023/12/29 06:48:30;;;;;;;4.28;1.98;;;7.30;99.90;;;;;;7530002;19;20562;-72
2023/12/29 06:51:03;;;;;;;4.10;2.15;;;7.30;99.90;;;;;;7578812;19;20018;-72
2023/12/29 06:53:35;;;;;;;2.97;2.30;;;7.40;99.90;;;;;;7534912;19;20010;-72
2023/12/29 06:56:13;;;;;;;4.82;2.63;;;7.40;99.90;;;;;;7534662;19;20018;-71
2023/12/29 06:58:46;;;;;;;3.53;2.20;;;7.40;99.70;;;;;;7512243;19;20796;-71
